Milwaukee, WI (53201)

9:47 AM CDT on September 05, 2015 (GMT -0500)
Milwaukee Harbor | | Change Station
CLOSE
Current Station
Personal Weather Station
Location: Milwaukee, WI
Elevation: 591 ft
Nearby Weather Stations

Elev 591 ft 43.02 °N, 87.91 °W | Updated 23 seconds ago

Overcast
Overcast
65.8 °F
Feels Like 65.8 °F
N
0.2
Wind Variable Wind from ESE
Gusts 2.5 mph

Today
High -- | Low -- °F
--% Chance of Precip.
Yesterday
High -- | Low -- °F
Precip. -- in
6:20 AM 7:19 PM
Waning Gibbous, 48% visible
Pressure 30.09 in
Visibility 7.0 miles
Clouds Overcast 400 ft
Dew Point 66 °F
Humidity 99%
Rainfall 0.00 in
Snow Depth Not available.
UV 2.0 out of 12
Pollen 6.10 out of 12
Air Quality Not available.
Flu Activity Not available.
METAR KMKE 051352Z 14005KT 7SM OVC004 21/19 A3010 RMK AO2 SLP189 T02060194
Pressure 30.09 in
Visibility 7.0 miles
Clouds Overcast 400 ft
Dew Point 66 °F
Humidity 99%
Rainfall 0.00 in
Snow Depth Not available.
UV 2.0 out of 12
Pollen 6.10 out of 12
Air Quality Not available.
Flu Activity Not available.
METAR KMKE 051352Z 14005KT 7SM OVC004 21/19 A3010 RMK AO2 SLP189 T02060194

10-Day Weather Forecast

×

Almanac

Astronomy

Sep. 05, 2015 Rise Set
Actual Time
Civil Twilight
Nautical Twilight
Astronomical Twilight
Moon
Length of Visible Light
Length of Day
Tomorrow will be .
, % of the Moon is Illuminated

Today's Extremes

State Highs State Lows

Community

WunderPhotos

Upload Photos

1,852,481 photos uploaded!

WunderBlogs® & News

Nearby

Air Quality

  Air Quality AQ Index Pollutant
Not available.

Snow Depth

Station Depth Elevation

Earthquake Activity

City Distance Mag. Time & Date
Minimum magnitude displayed is 2.5.

Coastal Water Temperatures

Place Temperature

Stations

Nearby Weather Stations

Station Location Temp. Windchill Dew Point Humidity Wind Precip. Elev Updated Type